sensor_id;sensor_type;location;lat;lon;timestamp;P1;durP1;ratioP1;P2;durP2;ratioP2
17796;SDS011;55596;53.554;9.916;2024-01-27T00:00:02;30.17;;;5.73;;
17796;SDS011;55596;53.554;9.916;2024-01-27T00:02:29;29.63;;;5.07;;
17796;SDS011;55596;53.554;9.916;2024-01-27T00:04:56;36.13;;;5.93;;
17796;SDS011;55596;53.554;9.916;2024-01-27T00:07:23;24.33;;;4.50;;
17796;SDS011;55596;53.554;9.916;2024-01-27T00:09:52;28.67;;;5.13;;
17796;SDS011;55596;53.554;9.916;2024-01-27T00:12:20;30.20;;;5.90;;
17796;SDS011;55596;53.554;9.916;2024-01-27T00:14:47;33.83;;;5.60;;
17796;SDS011;55596;53.554;9.916;2024-01-27T00:17:15;29.33;;;5.20;;
17796;SDS011;55596;53.554;9.916;2024-01-27T00:19:42;26.17;;;5.00;;
17796;SDS011;55596;53.554;9.916;2024-01-27T00:22:09;35.53;;;5.97;;
17796;SDS011;55596;53.554;9.916;2024-01-27T00:24:36;28.70;;;4.97;;
17796;SDS011;55596;53.554;9.916;2024-01-27T00:27:03;28.27;;;4.47;;
17796;SDS011;55596;53.554;9.916;2024-01-27T00:29:31;37.07;;;4.93;;
17796;SDS011;55596;53.554;9.916;2024-01-27T00:31:58;27.50;;;4.23;;
17796;SDS011;55596;53.554;9.916;2024-01-27T00:34:25;28.00;;;6.33;;
17796;SDS011;55596;53.554;9.916;2024-01-27T00:36:52;33.97;;;5.47;;
17796;SDS011;55596;53.554;9.916;2024-01-27T00:39:19;29.07;;;4.90;;
17796;SDS011;55596;53.554;9.916;2024-01-27T00:41:47;23.90;;;5.00;;
17796;SDS011;55596;53.554;9.916;2024-01-27T00:44:14;40.60;;;6.30;;
17796;SDS011;55596;53.554;9.916;2024-01-27T00:46:43;33.20;;;4.93;;
17796;SDS011;55596;53.554;9.916;2024-01-27T00:49:10;28.50;;;4.53;;
17796;SDS011;55596;53.554;9.916;2024-01-27T00:51:37;35.10;;;5.67;;
17796;SDS011;55596;53.554;9.916;2024-01-27T00:54:04;35.43;;;5.10;;
17796;SDS011;55596;53.554;9.916;2024-01-27T00:56:31;35.23;;;5.63;;
17796;SDS011;55596;53.554;9.916;2024-01-27T00:58:58;27.43;;;5.43;;
17796;SDS011;55596;53.554;9.916;2024-01-27T01:01:25;32.67;;;5.70;;
17796;SDS011;55596;53.554;9.916;2024-01-27T01:03:54;32.80;;;5.80;;
17796;SDS011;55596;53.554;9.916;2024-01-27T01:06:21;30.93;;;5.33;;
17796;SDS011;55596;53.554;9.916;2024-01-27T01:08:48;31.60;;;5.77;;
17796;SDS011;55596;53.554;9.916;2024-01-27T01:11:15;35.73;;;5.40;;
17796;SDS011;55596;53.554;9.916;2024-01-27T01:13:42;26.40;;;5.30;;
17796;SDS011;55596;53.554;9.916;2024-01-27T01:16:09;30.90;;;4.60;;
17796;SDS011;55596;53.554;9.916;2024-01-27T01:18:36;35.73;;;5.33;;
17796;SDS011;55596;53.554;9.916;2024-01-27T01:21:05;33.07;;;5.23;;
17796;SDS011;55596;53.554;9.916;2024-01-27T01:23:32;44.03;;;5.23;;
17796;SDS011;55596;53.554;9.916;2024-01-27T01:25:59;37.67;;;6.13;;
17796;SDS011;55596;53.554;9.916;2024-01-27T01:28:27;38.27;;;5.53;;
17796;SDS011;55596;53.554;9.916;2024-01-27T01:30:55;28.30;;;5.80;;
17796;SDS011;55596;53.554;9.916;2024-01-27T01:33:22;34.43;;;5.10;;
17796;SDS011;55596;53.554;9.916;2024-01-27T01:35:48;33.47;;;5.00;;
17796;SDS011;55596;53.554;9.916;2024-01-27T01:38:17;28.83;;;4.33;;
17796;SDS011;55596;53.554;9.916;2024-01-27T01:40:44;34.93;;;5.50;;
17796;SDS011;55596;53.554;9.916;2024-01-27T01:43:11;41.43;;;5.60;;
17796;SDS011;55596;53.554;9.916;2024-01-27T01:45:38;28.17;;;4.37;;
17796;SDS011;55596;53.554;9.916;2024-01-27T01:48:05;39.00;;;7.07;;
17796;SDS011;55596;53.554;9.916;2024-01-27T01:50:32;28.80;;;4.73;;
17796;SDS011;55596;53.554;9.916;2024-01-27T01:52:59;36.27;;;5.33;;
17796;SDS011;55596;53.554;9.916;2024-01-27T01:55:28;34.57;;;5.67;;
17796;SDS011;55596;53.554;9.916;2024-01-27T01:57:55;31.57;;;4.20;;
17796;SDS011;55596;53.554;9.916;2024-01-27T02:00:22;33.67;;;5.67;;
17796;SDS011;55596;53.554;9.916;2024-01-27T02:02:49;31.83;;;5.10;;
17796;SDS011;55596;53.554;9.916;2024-01-27T02:05:16;28.83;;;5.07;;
17796;SDS011;55596;53.554;9.916;2024-01-27T02:07:43;34.07;;;5.77;;
17796;SDS011;55596;53.554;9.916;2024-01-27T02:10:13;37.43;;;5.80;;
17796;SDS011;55596;53.554;9.916;2024-01-27T02:12:42;21.30;;;4.00;;
17796;SDS011;55596;53.554;9.916;2024-01-27T02:15:09;18.50;;;3.97;;
17796;SDS011;55596;53.554;9.916;2024-01-27T02:17:37;27.53;;;4.90;;
17796;SDS011;55596;53.554;9.916;2024-01-27T02:20:05;34.83;;;4.93;;
17796;SDS011;55596;53.554;9.916;2024-01-27T02:22:32;31.73;;;4.97;;
17796;SDS011;55596;53.554;9.916;2024-01-27T02:25:01;37.00;;;5.27;;
17796;SDS011;55596;53.554;9.916;2024-01-27T02:27:28;28.80;;;4.77;;
17796;SDS011;55596;53.554;9.916;2024-01-27T02:29:55;37.27;;;4.70;;
17796;SDS011;55596;53.554;9.916;2024-01-27T02:32:22;39.00;;;5.50;;
17796;SDS011;55596;53.554;9.916;2024-01-27T02:34:49;22.17;;;3.97;;
17796;SDS011;55596;53.554;9.916;2024-01-27T02:37:18;31.20;;;5.07;;
17796;SDS011;55596;53.554;9.916;2024-01-27T02:39:45;26.20;;;5.30;;
17796;SDS011;55596;53.554;9.916;2024-01-27T02:42:13;28.07;;;4.97;;
17796;SDS011;55596;53.554;9.916;2024-01-27T02:44:40;34.03;;;5.10;;
17796;SDS011;55596;53.554;9.916;2024-01-27T02:47:07;34.10;;;5.50;;
17796;SDS011;55596;53.554;9.916;2024-01-27T02:49:34;28.10;;;5.37;;
17796;SDS011;55596;53.554;9.916;2024-01-27T02:52:01;37.53;;;6.50;;
17796;SDS011;55596;53.554;9.916;2024-01-27T02:54:28;36.90;;;5.40;;
17796;SDS011;55596;53.554;9.916;2024-01-27T02:56:55;27.20;;;4.93;;
17796;SDS011;55596;53.554;9.916;2024-01-27T02:59:24;32.73;;;5.67;;
17796;SDS011;55596;53.554;9.916;2024-01-27T03:01:50;34.13;;;4.93;;
17796;SDS011;55596;53.554;9.916;2024-01-27T03:04:17;29.17;;;4.73;;
17796;SDS011;55596;53.554;9.916;2024-01-27T03:06:44;24.47;;;4.30;;
17796;SDS011;55596;53.554;9.916;2024-01-27T03:09:11;35.87;;;5.07;;
17796;SDS011;55596;53.554;9.916;2024-01-27T03:11:38;22.57;;;4.57;;
17796;SDS011;55596;53.554;9.916;2024-01-27T03:14:05;30.73;;;5.63;;
17796;SDS011;55596;53.554;9.916;2024-01-27T03:16:34;31.43;;;4.37;;
17796;SDS011;55596;53.554;9.916;2024-01-27T03:19:01;32.67;;;5.40;;
17796;SDS011;55596;53.554;9.916;2024-01-27T03:21:28;35.87;;;5.00;;
17796;SDS011;55596;53.554;9.916;2024-01-27T03:23:55;30.50;;;4.50;;
17796;SDS011;55596;53.554;9.916;2024-01-27T03:26:21;39.83;;;5.70;;
17796;SDS011;55596;53.554;9.916;2024-01-27T03:28:48;28.40;;;5.07;;
17796;SDS011;55596;53.554;9.916;2024-01-27T03:31:16;31.17;;;5.00;;
17796;SDS011;55596;53.554;9.916;2024-01-27T03:33:44;36.60;;;5.70;;
17796;SDS011;55596;53.554;9.916;2024-01-27T03:36:12;27.17;;;4.63;;
17796;SDS011;55596;53.554;9.916;2024-01-27T03:38:39;30.90;;;4.43;;
17796;SDS011;55596;53.554;9.916;2024-01-27T03:41:07;35.13;;;5.73;;
17796;SDS011;55596;53.554;9.916;2024-01-27T03:43:34;33.00;;;5.30;;
17796;SDS011;55596;53.554;9.916;2024-01-27T03:46:01;26.90;;;4.33;;
17796;SDS011;55596;53.554;9.916;2024-01-27T03:48:28;35.37;;;5.17;;
17796;SDS011;55596;53.554;9.916;2024-01-27T03:50:56;32.00;;;5.03;;
17796;SDS011;55596;53.554;9.916;2024-01-27T03:53:23;34.33;;;4.83;;
17796;SDS011;55596;53.554;9.916;2024-01-27T03:55:50;33.03;;;4.60;;
17796;SDS011;55596;53.554;9.916;2024-01-27T03:58:17;30.23;;;4.70;;
17796;SDS011;55596;53.554;9.916;2024-01-27T04:00:44;30.40;;;4.93;;
17796;SDS011;55596;53.554;9.916;2024-01-27T04:03:11;28.70;;;5.10;;
17796;SDS011;55596;53.554;9.916;2024-01-27T04:05:38;32.03;;;4.53;;
17796;SDS011;55596;53.554;9.916;2024-01-27T04:08:07;34.07;;;5.23;;
17796;SDS011;55596;53.554;9.916;2024-01-27T04:10:34;29.93;;;4.97;;
17796;SDS011;55596;53.554;9.916;2024-01-27T04:13:01;29.20;;;4.83;;
17796;SDS011;55596;53.554;9.916;2024-01-27T04:15:28;27.17;;;5.00;;
17796;SDS011;55596;53.554;9.916;2024-01-27T04:17:55;38.77;;;5.70;;
17796;SDS011;55596;53.554;9.916;2024-01-27T04:20:22;36.53;;;5.33;;
17796;SDS011;55596;53.554;9.916;2024-01-27T04:22:49;34.77;;;5.50;;
17796;SDS011;55596;53.554;9.916;2024-01-27T04:25:17;40.17;;;6.10;;
17796;SDS011;55596;53.554;9.916;2024-01-27T04:27:44;43.97;;;5.27;;
17796;SDS011;55596;53.554;9.916;2024-01-27T04:30:11;29.77;;;5.23;;
17796;SDS011;55596;53.554;9.916;2024-01-27T04:32:38;41.30;;;5.33;;
17796;SDS011;55596;53.554;9.916;2024-01-27T04:35:08;45.10;;;6.00;;
17796;SDS011;55596;53.554;9.916;2024-01-27T04:37:35;30.87;;;5.20;;
17796;SDS011;55596;53.554;9.916;2024-01-27T04:40:03;35.83;;;5.13;;
17796;SDS011;55596;53.554;9.916;2024-01-27T04:42:32;29.00;;;5.47;;
17796;SDS011;55596;53.554;9.916;2024-01-27T04:44:59;28.57;;;4.70;;
17796;SDS011;55596;53.554;9.916;2024-01-27T04:47:26;32.07;;;5.53;;
17796;SDS011;55596;53.554;9.916;2024-01-27T04:49:53;34.50;;;6.00;;
17796;SDS011;55596;53.554;9.916;2024-01-27T04:52:20;32.43;;;4.97;;
17796;SDS011;55596;53.554;9.916;2024-01-27T04:54:47;40.77;;;5.60;;
17796;SDS011;55596;53.554;9.916;2024-01-27T04:57:14;33.03;;;5.23;;
17796;SDS011;55596;53.554;9.916;2024-01-27T04:59:42;38.77;;;5.37;;
17796;SDS011;55596;53.554;9.916;2024-01-27T05:02:10;38.53;;;5.90;;
17796;SDS011;55596;53.554;9.916;2024-01-27T05:04:37;31.63;;;5.37;;
17796;SDS011;55596;53.554;9.916;2024-01-27T05:07:04;36.30;;;4.57;;
17796;SDS011;55596;53.554;9.916;2024-01-27T05:09:31;38.87;;;5.87;;
17796;SDS011;55596;53.554;9.916;2024-01-27T05:11:59;32.07;;;5.17;;
17796;SDS011;55596;53.554;9.916;2024-01-27T05:14:26;46.63;;;7.30;;
17796;SDS011;55596;53.554;9.916;2024-01-27T05:16:54;41.90;;;7.07;;
17796;SDS011;55596;53.554;9.916;2024-01-27T05:19:21;34.80;;;6.07;;
17796;SDS011;55596;53.554;9.916;2024-01-27T05:21:48;31.33;;;5.20;;
17796;SDS011;55596;53.554;9.916;2024-01-27T05:24:15;30.03;;;5.53;;
17796;SDS011;55596;53.554;9.916;2024-01-27T05:26:42;33.63;;;5.20;;
17796;SDS011;55596;53.554;9.916;2024-01-27T05:29:09;36.37;;;5.87;;
17796;SDS011;55596;53.554;9.916;2024-01-27T05:31:36;31.97;;;5.07;;
17796;SDS011;55596;53.554;9.916;2024-01-27T05:34:04;42.60;;;6.57;;
17796;SDS011;55596;53.554;9.916;2024-01-27T05:36:31;43.17;;;5.60;;
17796;SDS011;55596;53.554;9.916;2024-01-27T05:38:58;51.47;;;6.77;;
17796;SDS011;55596;53.554;9.916;2024-01-27T05:41:26;42.13;;;6.50;;
17796;SDS011;55596;53.554;9.916;2024-01-27T05:43:54;47.27;;;6.30;;
17796;SDS011;55596;53.554;9.916;2024-01-27T05:46:23;40.87;;;6.70;;
17796;SDS011;55596;53.554;9.916;2024-01-27T05:48:50;36.10;;;5.57;;
17796;SDS011;55596;53.554;9.916;2024-01-27T05:51:20;40.77;;;5.93;;
17796;SDS011;55596;53.554;9.916;2024-01-27T05:53:48;37.40;;;5.70;;
17796;SDS011;55596;53.554;9.916;2024-01-27T05:56:15;41.07;;;4.87;;
17796;SDS011;55596;53.554;9.916;2024-01-27T05:58:42;57.53;;;6.87;;
17796;SDS011;55596;53.554;9.916;2024-01-27T06:01:09;42.57;;;5.87;;
17796;SDS011;55596;53.554;9.916;2024-01-27T06:03:36;32.83;;;5.57;;
17796;SDS011;55596;53.554;9.916;2024-01-27T06:06:03;43.40;;;6.37;;
17796;SDS011;55596;53.554;9.916;2024-01-27T06:08:31;36.43;;;5.40;;
17796;SDS011;55596;53.554;9.916;2024-01-27T06:10:58;40.70;;;5.30;;
17796;SDS011;55596;53.554;9.916;2024-01-27T06:13:25;35.27;;;5.20;;
17796;SDS011;55596;53.554;9.916;2024-01-27T06:15:52;46.27;;;6.23;;
17796;SDS011;55596;53.554;9.916;2024-01-27T06:18:19;41.17;;;5.10;;
17796;SDS011;55596;53.554;9.916;2024-01-27T06:20:47;43.53;;;6.07;;
17796;SDS011;55596;53.554;9.916;2024-01-27T06:23:14;39.23;;;5.73;;
17796;SDS011;55596;53.554;9.916;2024-01-27T06:25:42;35.40;;;4.60;;
17796;SDS011;55596;53.554;9.916;2024-01-27T06:28:09;45.20;;;6.20;;
17796;SDS011;55596;53.554;9.916;2024-01-27T06:30:36;49.23;;;6.70;;
17796;SDS011;55596;53.554;9.916;2024-01-27T06:33:03;46.83;;;5.80;;
17796;SDS011;55596;53.554;9.916;2024-01-27T06:35:30;30.97;;;4.57;;
17796;SDS011;55596;53.554;9.916;2024-01-27T06:37:57;41.60;;;5.97;;
17796;SDS011;55596;53.554;9.916;2024-01-27T06:40:24;41.00;;;5.30;;
17796;SDS011;55596;53.554;9.916;2024-01-27T06:42:53;43.47;;;5.97;;
17796;SDS011;55596;53.554;9.916;2024-01-27T06:45:20;44.37;;;5.67;;
17796;SDS011;55596;53.554;9.916;2024-01-27T06:47:47;44.83;;;5.30;;
17796;SDS011;55596;53.554;9.916;2024-01-27T06:50:14;32.03;;;4.80;;
17796;SDS011;55596;53.554;9.916;2024-01-27T06:52:41;42.53;;;5.83;;
17796;SDS011;55596;53.554;9.916;2024-01-27T06:55:08;38.27;;;6.30;;
17796;SDS011;55596;53.554;9.916;2024-01-27T06:57:35;40.20;;;6.13;;
17796;SDS011;55596;53.554;9.916;2024-01-27T07:00:04;49.73;;;6.50;;
17796;SDS011;55596;53.554;9.916;2024-01-27T07:02:32;32.20;;;5.73;;
17796;SDS011;55596;53.554;9.916;2024-01-27T07:04:59;31.57;;;5.80;;
17796;SDS011;55596;53.554;9.916;2024-01-27T07:07:26;51.93;;;6.33;;
17796;SDS011;55596;53.554;9.916;2024-01-27T07:09:54;33.83;;;5.83;;
17796;SDS011;55596;53.554;9.916;2024-01-27T07:12:21;38.63;;;5.93;;
17796;SDS011;55596;53.554;9.916;2024-01-27T07:14:48;36.33;;;5.57;;
17796;SDS011;55596;53.554;9.916;2024-01-27T07:17:17;33.27;;;5.83;;
17796;SDS011;55596;53.554;9.916;2024-01-27T07:19:44;48.60;;;7.00;;
17796;SDS011;55596;53.554;9.916;2024-01-27T07:22:11;41.40;;;5.97;;
17796;SDS011;55596;53.554;9.916;2024-01-27T07:24:39;36.20;;;5.10;;
17796;SDS011;55596;53.554;9.916;2024-01-27T07:27:06;54.40;;;6.53;;
17796;SDS011;55596;53.554;9.916;2024-01-27T07:29:33;41.03;;;6.90;;
17796;SDS011;55596;53.554;9.916;2024-01-27T07:32:00;28.60;;;4.37;;
17796;SDS011;55596;53.554;9.916;2024-01-27T07:34:28;39.47;;;6.03;;
17796;SDS011;55596;53.554;9.916;2024-01-27T07:36:55;36.10;;;5.20;;
17796;SDS011;55596;53.554;9.916;2024-01-27T07:39:22;38.53;;;5.57;;
17796;SDS011;55596;53.554;9.916;2024-01-27T07:41:49;36.67;;;6.50;;
17796;SDS011;55596;53.554;9.916;2024-01-27T07:44:17;43.37;;;4.37;;
17796;SDS011;55596;53.554;9.916;2024-01-27T07:46:44;33.27;;;5.57;;
17796;SDS011;55596;53.554;9.916;2024-01-27T07:49:11;36.27;;;5.03;;
17796;SDS011;55596;53.554;9.916;2024-01-27T07:51:41;39.70;;;5.80;;
17796;SDS011;55596;53.554;9.916;2024-01-27T07:54:08;31.30;;;5.03;;
17796;SDS011;55596;53.554;9.916;2024-01-27T07:56:37;30.67;;;5.30;;
17796;SDS011;55596;53.554;9.916;2024-01-27T07:59:04;38.17;;;5.93;;
17796;SDS011;55596;53.554;9.916;2024-01-27T08:01:38;41.23;;;6.13;;
17796;SDS011;55596;53.554;9.916;2024-01-27T08:04:05;43.73;;;6.40;;
17796;SDS011;55596;53.554;9.916;2024-01-27T08:06:33;32.93;;;5.70;;
17796;SDS011;55596;53.554;9.916;2024-01-27T08:09:02;32.43;;;5.67;;
17796;SDS011;55596;53.554;9.916;2024-01-27T08:11:29;25.13;;;5.47;;
17796;SDS011;55596;53.554;9.916;2024-01-27T08:13:56;38.27;;;5.90;;
17796;SDS011;55596;53.554;9.916;2024-01-27T08:16:23;36.50;;;5.57;;
17796;SDS011;55596;53.554;9.916;2024-01-27T08:18:50;31.97;;;5.17;;
17796;SDS011;55596;53.554;9.916;2024-01-27T08:21:17;41.27;;;5.50;;
17796;SDS011;55596;53.554;9.916;2024-01-27T08:23:44;32.70;;;5.10;;
17796;SDS011;55596;53.554;9.916;2024-01-27T08:26:12;28.40;;;5.10;;
17796;SDS011;55596;53.554;9.916;2024-01-27T08:28:39;36.43;;;5.80;;
17796;SDS011;55596;53.554;9.916;2024-01-27T08:31:07;45.07;;;5.97;;
17796;SDS011;55596;53.554;9.916;2024-01-27T08:33:34;36.30;;;5.27;;
17796;SDS011;55596;53.554;9.916;2024-01-27T08:36:01;40.10;;;5.73;;
17796;SDS011;55596;53.554;9.916;2024-01-27T08:38:28;24.30;;;5.90;;
17796;SDS011;55596;53.554;9.916;2024-01-27T08:40:55;46.73;;;5.97;;
17796;SDS011;55596;53.554;9.916;2024-01-27T08:43:24;31.30;;;5.37;;
17796;SDS011;55596;53.554;9.916;2024-01-27T08:45:51;29.43;;;5.30;;
17796;SDS011;55596;53.554;9.916;2024-01-27T08:48:19;31.50;;;5.47;;
17796;SDS011;55596;53.554;9.916;2024-01-27T08:50:46;34.20;;;5.70;;
17796;SDS011;55596;53.554;9.916;2024-01-27T08:53:14;39.20;;;5.37;;
17796;SDS011;55596;53.554;9.916;2024-01-27T08:55:41;34.03;;;5.30;;
17796;SDS011;55596;53.554;9.916;2024-01-27T08:58:08;45.97;;;6.90;;
17796;SDS011;55596;53.554;9.916;2024-01-27T09:00:36;34.73;;;6.10;;
17796;SDS011;55596;53.554;9.916;2024-01-27T09:03:03;38.00;;;6.00;;
17796;SDS011;55596;53.554;9.916;2024-01-27T09:05:30;25.70;;;4.97;;
17796;SDS011;55596;53.554;9.916;2024-01-27T09:07:57;23.87;;;5.27;;
17796;SDS011;55596;53.554;9.916;2024-01-27T09:10:24;26.93;;;5.47;;
17796;SDS011;55596;53.554;9.916;2024-01-27T09:12:53;24.67;;;5.13;;
17796;SDS011;55596;53.554;9.916;2024-01-27T09:15:20;23.87;;;4.43;;
17796;SDS011;55596;53.554;9.916;2024-01-27T09:17:49;34.63;;;5.37;;
17796;SDS011;55596;53.554;9.916;2024-01-27T09:20:16;29.80;;;6.00;;
17796;SDS011;55596;53.554;9.916;2024-01-27T09:22:43;26.03;;;4.77;;
17796;SDS011;55596;53.554;9.916;2024-01-27T09:25:12;27.77;;;5.63;;
17796;SDS011;55596;53.554;9.916;2024-01-27T09:27:39;27.80;;;4.70;;
17796;SDS011;55596;53.554;9.916;2024-01-27T09:30:07;28.00;;;6.03;;
17796;SDS011;55596;53.554;9.916;2024-01-27T09:32:34;28.77;;;5.00;;
17796;SDS011;55596;53.554;9.916;2024-01-27T09:35:02;30.03;;;5.60;;
17796;SDS011;55596;53.554;9.916;2024-01-27T09:37:29;20.07;;;4.13;;
17796;SDS011;55596;53.554;9.916;2024-01-27T09:39:57;26.30;;;4.80;;
17796;SDS011;55596;53.554;9.916;2024-01-27T09:42:25;24.93;;;4.47;;
17796;SDS011;55596;53.554;9.916;2024-01-27T09:44:53;27.40;;;4.90;;
17796;SDS011;55596;53.554;9.916;2024-01-27T09:47:20;33.57;;;5.60;;
17796;SDS011;55596;53.554;9.916;2024-01-27T09:49:47;28.07;;;5.27;;
17796;SDS011;55596;53.554;9.916;2024-01-27T09:52:16;19.27;;;4.57;;
17796;SDS011;55596;53.554;9.916;2024-01-27T09:54:43;29.87;;;5.30;;
17796;SDS011;55596;53.554;9.916;2024-01-27T09:57:10;25.10;;;4.80;;
17796;SDS011;55596;53.554;9.916;2024-01-27T09:59:38;35.10;;;5.87;;
17796;SDS011;55596;53.554;9.916;2024-01-27T10:02:09;24.37;;;4.30;;
17796;SDS011;55596;53.554;9.916;2024-01-27T10:04:38;28.23;;;4.33;;
17796;SDS011;55596;53.554;9.916;2024-01-27T10:07:05;28.10;;;4.70;;
17796;SDS011;55596;53.554;9.916;2024-01-27T10:09:33;27.87;;;4.30;;
17796;SDS011;55596;53.554;9.916;2024-01-27T10:12:00;23.77;;;4.50;;
17796;SDS011;55596;53.554;9.916;2024-01-27T10:14:37;20.80;;;3.90;;
17796;SDS011;55596;53.554;9.916;2024-01-27T10:17:04;21.17;;;3.87;;
17796;SDS011;55596;53.554;9.916;2024-01-27T10:19:31;23.43;;;3.80;;
17796;SDS011;55596;53.554;9.916;2024-01-27T10:21:59;17.33;;;3.87;;
17796;SDS011;55596;53.554;9.916;2024-01-27T10:24:27;20.80;;;4.20;;
17796;SDS011;55596;53.554;9.916;2024-01-27T10:26:59;22.37;;;3.83;;
17796;SDS011;55596;53.554;9.916;2024-01-27T10:29:26;21.00;;;4.33;;
17796;SDS011;55596;53.554;9.916;2024-01-27T10:31:53;12.57;;;3.43;;
17796;SDS011;55596;53.554;9.916;2024-01-27T10:34:20;13.73;;;3.30;;
17796;SDS011;55596;53.554;9.916;2024-01-27T10:36:47;20.17;;;4.17;;
17796;SDS011;55596;53.554;9.916;2024-01-27T10:39:17;18.70;;;3.63;;
17796;SDS011;55596;53.554;9.916;2024-01-27T10:41:45;17.73;;;3.93;;
17796;SDS011;55596;53.554;9.916;2024-01-27T10:44:15;20.67;;;4.07;;
17796;SDS011;55596;53.554;9.916;2024-01-27T10:46:42;24.07;;;3.27;;
17796;SDS011;55596;53.554;9.916;2024-01-27T10:49:11;15.97;;;3.53;;
17796;SDS011;55596;53.554;9.916;2024-01-27T10:51:38;19.27;;;3.87;;
17796;SDS011;55596;53.554;9.916;2024-01-27T10:54:10;25.30;;;4.47;;
17796;SDS011;55596;53.554;9.916;2024-01-27T10:56:40;21.40;;;4.17;;
17796;SDS011;55596;53.554;9.916;2024-01-27T10:59:09;19.20;;;3.80;;
17796;SDS011;55596;53.554;9.916;2024-01-27T11:01:39;24.83;;;4.63;;
17796;SDS011;55596;53.554;9.916;2024-01-27T11:04:06;20.17;;;3.83;;
17796;SDS011;55596;53.554;9.916;2024-01-27T11:06:35;14.20;;;3.67;;
17796;SDS011;55596;53.554;9.916;2024-01-27T11:09:04;19.03;;;4.00;;
17796;SDS011;55596;53.554;9.916;2024-01-27T11:11:33;17.47;;;3.80;;
17796;SDS011;55596;53.554;9.916;2024-01-27T11:14:01;15.23;;;3.63;;
17796;SDS011;55596;53.554;9.916;2024-01-27T11:16:28;14.50;;;3.47;;
17796;SDS011;55596;53.554;9.916;2024-01-27T11:18:56;18.60;;;4.00;;
17796;SDS011;55596;53.554;9.916;2024-01-27T11:21:23;22.43;;;4.67;;
17796;SDS011;55596;53.554;9.916;2024-01-27T11:23:50;20.70;;;4.23;;
17796;SDS011;55596;53.554;9.916;2024-01-27T11:26:17;17.83;;;3.30;;
17796;SDS011;55596;53.554;9.916;2024-01-27T11:28:46;17.43;;;3.57;;
17796;SDS011;55596;53.554;9.916;2024-01-27T11:31:15;18.07;;;3.87;;
17796;SDS011;55596;53.554;9.916;2024-01-27T11:33:43;22.67;;;3.97;;
17796;SDS011;55596;53.554;9.916;2024-01-27T11:36:18;15.30;;;3.77;;
17796;SDS011;55596;53.554;9.916;2024-01-27T11:38:46;15.27;;;3.03;;
17796;SDS011;55596;53.554;9.916;2024-01-27T11:41:22;17.00;;;3.13;;
17796;SDS011;55596;53.554;9.916;2024-01-27T11:43:51;13.50;;;3.87;;
17796;SDS011;55596;53.554;9.916;2024-01-27T11:46:18;14.43;;;3.73;;
17796;SDS011;55596;53.554;9.916;2024-01-27T11:48:45;15.23;;;3.53;;
17796;SDS011;55596;53.554;9.916;2024-01-27T11:51:12;13.63;;;3.20;;
17796;SDS011;55596;53.554;9.916;2024-01-27T11:53:40;14.83;;;3.50;;
17796;SDS011;55596;53.554;9.916;2024-01-27T11:56:09;16.33;;;3.30;;
17796;SDS011;55596;53.554;9.916;2024-01-27T11:58:37;22.57;;;3.80;;
17796;SDS011;55596;53.554;9.916;2024-01-27T12:01:04;17.20;;;3.73;;
17796;SDS011;55596;53.554;9.916;2024-01-27T12:03:31;16.53;;;3.63;;
17796;SDS011;55596;53.554;9.916;2024-01-27T12:05:59;16.70;;;3.73;;
17796;SDS011;55596;53.554;9.916;2024-01-27T12:08:26;13.20;;;3.77;;
17796;SDS011;55596;53.554;9.916;2024-01-27T12:10:55;12.47;;;3.70;;
17796;SDS011;55596;53.554;9.916;2024-01-27T12:13:22;17.10;;;4.00;;
17796;SDS011;55596;53.554;9.916;2024-01-27T12:15:49;13.20;;;2.83;;
17796;SDS011;55596;53.554;9.916;2024-01-27T12:18:16;17.07;;;3.43;;
17796;SDS011;55596;53.554;9.916;2024-01-27T12:20:44;17.47;;;3.30;;
17796;SDS011;55596;53.554;9.916;2024-01-27T12:23:11;12.87;;;3.30;;
17796;SDS011;55596;53.554;9.916;2024-01-27T12:25:38;14.47;;;3.10;;
17796;SDS011;55596;53.554;9.916;2024-01-27T12:28:06;14.43;;;2.87;;
17796;SDS011;55596;53.554;9.916;2024-01-27T12:30:33;13.07;;;3.07;;
17796;SDS011;55596;53.554;9.916;2024-01-27T12:33:01;14.30;;;2.97;;
17796;SDS011;55596;53.554;9.916;2024-01-27T12:35:28;17.10;;;3.47;;
17796;SDS011;55596;53.554;9.916;2024-01-27T12:37:55;19.43;;;3.97;;
17796;SDS011;55596;53.554;9.916;2024-01-27T12:40:23;18.10;;;3.57;;
17796;SDS011;55596;53.554;9.916;2024-01-27T12:42:50;13.73;;;3.47;;
17796;SDS011;55596;53.554;9.916;2024-01-27T12:45:18;15.53;;;3.73;;
17796;SDS011;55596;53.554;9.916;2024-01-27T12:47:45;15.53;;;3.40;;
17796;SDS011;55596;53.554;9.916;2024-01-27T12:50:12;12.93;;;3.80;;
17796;SDS011;55596;53.554;9.916;2024-01-27T12:52:39;17.10;;;3.77;;
17796;SDS011;55596;53.554;9.916;2024-01-27T12:55:07;14.30;;;3.57;;
17796;SDS011;55596;53.554;9.916;2024-01-27T12:57:34;20.60;;;3.77;;
17796;SDS011;55596;53.554;9.916;2024-01-27T13:00:01;13.13;;;3.57;;
17796;SDS011;55596;53.554;9.916;2024-01-27T13:02:35;18.97;;;3.63;;
17796;SDS011;55596;53.554;9.916;2024-01-27T13:05:03;17.20;;;3.90;;
17796;SDS011;55596;53.554;9.916;2024-01-27T13:07:30;18.80;;;4.20;;
17796;SDS011;55596;53.554;9.916;2024-01-27T13:09:57;12.80;;;3.30;;
17796;SDS011;55596;53.554;9.916;2024-01-27T13:12:24;15.33;;;3.30;;
17796;SDS011;55596;53.554;9.916;2024-01-27T13:14:51;16.73;;;3.67;;
17796;SDS011;55596;53.554;9.916;2024-01-27T13:17:20;18.60;;;4.10;;
17796;SDS011;55596;53.554;9.916;2024-01-27T13:19:48;20.80;;;3.50;;
17796;SDS011;55596;53.554;9.916;2024-01-27T13:22:15;16.27;;;3.60;;
17796;SDS011;55596;53.554;9.916;2024-01-27T13:24:42;19.07;;;4.10;;
17796;SDS011;55596;53.554;9.916;2024-01-27T13:27:10;17.83;;;3.83;;
17796;SDS011;55596;53.554;9.916;2024-01-27T13:29:37;16.20;;;3.53;;
17796;SDS011;55596;53.554;9.916;2024-01-27T13:32:04;13.87;;;3.30;;
17796;SDS011;55596;53.554;9.916;2024-01-27T13:34:31;18.30;;;4.07;;
17796;SDS011;55596;53.554;9.916;2024-01-27T13:37:00;18.07;;;3.97;;
17796;SDS011;55596;53.554;9.916;2024-01-27T13:39:29;18.33;;;3.97;;
17796;SDS011;55596;53.554;9.916;2024-01-27T13:41:56;14.67;;;3.53;;
17796;SDS011;55596;53.554;9.916;2024-01-27T13:44:23;19.53;;;3.80;;
17796;SDS011;55596;53.554;9.916;2024-01-27T13:46:50;16.93;;;4.00;;
17796;SDS011;55596;53.554;9.916;2024-01-27T13:49:18;12.03;;;3.33;;
17796;SDS011;55596;53.554;9.916;2024-01-27T13:51:45;16.20;;;4.20;;
17796;SDS011;55596;53.554;9.916;2024-01-27T13:54:14;14.90;;;3.80;;
17796;SDS011;55596;53.554;9.916;2024-01-27T13:56:41;17.30;;;4.07;;
17796;SDS011;55596;53.554;9.916;2024-01-27T13:59:08;16.87;;;3.97;;
17796;SDS011;55596;53.554;9.916;2024-01-27T14:01:35;15.47;;;4.00;;
17796;SDS011;55596;53.554;9.916;2024-01-27T14:04:02;18.30;;;4.77;;
17796;SDS011;55596;53.554;9.916;2024-01-27T14:06:30;19.00;;;3.87;;
17796;SDS011;55596;53.554;9.916;2024-01-27T14:08:57;18.70;;;4.97;;
17796;SDS011;55596;53.554;9.916;2024-01-27T14:11:25;18.37;;;4.07;;
17796;SDS011;55596;53.554;9.916;2024-01-27T14:13:52;18.67;;;4.37;;
17796;SDS011;55596;53.554;9.916;2024-01-27T14:16:19;19.20;;;4.10;;
17796;SDS011;55596;53.554;9.916;2024-01-27T14:18:47;17.53;;;3.90;;
17796;SDS011;55596;53.554;9.916;2024-01-27T14:21:14;21.10;;;4.37;;
17796;SDS011;55596;53.554;9.916;2024-01-27T14:23:41;20.90;;;4.43;;
17796;SDS011;55596;53.554;9.916;2024-01-27T14:26:08;19.90;;;4.20;;
17796;SDS011;55596;53.554;9.916;2024-01-27T14:28:41;19.93;;;4.73;;
17796;SDS011;55596;53.554;9.916;2024-01-27T14:31:08;18.60;;;4.00;;
17796;SDS011;55596;53.554;9.916;2024-01-27T14:33:35;16.83;;;4.17;;